• Join FlightAware (Why Join?)
  • Login
  • US Flag 
04:15AM EDT


 

Airport Tracker/Info


-or-


 

Live Flight TrackerFlight Track Log ✈ SWA1630 ✈ 22-Apr-2013 ✈ KMCO - KPHL

Flight Track Log - Related Links

Times and Time Zones

All times are in EDT time to prevent confusion due to time zone crossing. See the SWA1630 flight status page for this flight to view local times or setup timezone preferences in your user account.

Time Position Orientation Groundspeed Altitude Reporting Facility
EDT Latitude Longitude Course Direction KTS MPH feet Rate Location/Type
07:02PM 28.4333 -81.3000 16° North 151 174 900  Level Orlando TRACON
07:04PM 28.5547 -81.2594 16° North 199 229 5,600 2,280 Climbing Jacksonville Center
07:05PM 28.6281 -81.2772 348° North 240 276 8,500 2,640 Climbing Jacksonville Center
07:06PM 28.7075 -81.2947 349° North 262 302 10,900 2,640 Climbing Jacksonville Center
07:07PM 28.7997 -81.3169 348° North 298 343 13,800 3,000 Climbing Jacksonville Center
07:08PM 28.8981 -81.3417 348° North 334 384 16,900 2,100 Climbing Jacksonville Center
07:09PM 29.0006 -81.3661 348° North 359 413 18,000 540 Climbing Jacksonville Center
07:10PM 29.1033 -81.3906 348° North 369 425 18,000 720 Level Jacksonville Center
07:11PM 29.2078 -81.4008 355° North 374 430 19,500 2,160 Climbing Jacksonville Center
07:12PM 29.3183 -81.4089 356° North 381 438 22,400 2,760 Climbing Jacksonville Center
07:13PM 29.4375 -81.4261 353° North 389 448 25,100 2,280 Climbing Jacksonville Center
07:14PM 29.5525 -81.4339 357° North 397 457 27,000 1,800 Climbing Jacksonville Center
07:15PM 29.6758 -81.4417 357° North 418 481 28,700 1,620 Climbing Jacksonville Center
07:16PM 29.8011 -81.4397 North 431 496 30,300 3,120 Climbing Jacksonville Center
07:17PM 29.9306 -81.4403 360° North 448 516 35,000 1,860 Climbing Jacksonville Center
07:18PM 30.0600 -81.4406 360° North 453 521 34,100  Descending Jacksonville Center
07:19PM 30.1872 -81.4386 North 458 527 35,000 420 Climbing Jacksonville Center
07:20PM 30.3144 -81.4367 North 458 527 35,000  Level Jacksonville Center
07:21PM 30.4378 -81.4372 360° North 458 527 35,000  Level Jacksonville Center
07:22PM 30.5631 -81.4378 360° North 453 521 35,000  Level Jacksonville Center
07:23PM 30.6861 -81.4383 360° North 447 514 35,000  Level Jacksonville Center
07:24PM 30.8094 -81.4389 360° North 442 509 35,000  Level Jacksonville Center
07:25PM 30.9347 -81.4369 North 442 509 35,000  Level Jacksonville Center
07:26PM 31.0600 -81.4400 359° North 442 509 35,000  Level Jacksonville Center
07:27PM 31.1831 -81.4381 North 442 509 35,000  Level Jacksonville Center
07:28PM 31.3125 -81.4261 North 442 509 35,000  Level Jacksonville Center
07:29PM 31.4331 -81.3878 15° North 447 514 35,000  Level Jacksonville Center
07:30PM 31.5475 -81.3592 12° North 452 520 35,000  Level Jacksonville Center
07:31PM 31.6828 -81.3228 13° North 452 520 35,000  Level Jacksonville Center
07:32PM 31.8097 -81.2889 13° North 452 520 35,000  Level Jacksonville Center
07:33PM 31.9242 -81.2600 12° North 457 526 35,000  Level Jacksonville Center
07:34PM 32.0511 -81.2258 13° North 457 526 35,000  Level Jacksonville Center
07:35PM 32.1694 -81.1647 24° Northeast 457 526 35,000  Level Jacksonville Center
07:36PM 32.2614 -81.0278 52° Northeast 449 517 35,000  Level Jacksonville Center
07:37PM 32.3347 -80.9133 53° Northeast 467 537 35,000  Level Jacksonville Center
07:38PM 32.4161 -80.7861 53° Northeast 482 555 35,000  Level Jacksonville Center
07:39PM 32.4956 -80.6611 53° Northeast 482 555 35,000  Level Jacksonville Center
07:40PM 32.5767 -80.5358 52° Northeast 482 555 35,000  Level Jacksonville Center
07:41PM 32.6578 -80.4078 53° Northeast 482 555 35,000  Level Jacksonville Center
07:42PM 32.7389 -80.2847 52° Northeast 482 555 35,000  Level Jacksonville Center
07:43PM 32.8175 -80.1586 53° Northeast 482 555 35,000  Level Jacksonville Center
07:44PM 32.9003 -80.0325 52° Northeast 477 549 35,000  Level Jacksonville Center
07:45PM 33.0147 -79.9225 39° Northeast 472 543 35,000  Level Jacksonville Center
07:46PM 33.1144 -79.8222 40° Northeast 472 543 35,000  Level Jacksonville Center
07:47PM 33.2186 -79.7219 39° Northeast 472 543 35,000  Level Jacksonville Center
07:48PM 33.3225 -79.6239 38° Northeast 472 543 35,000  Level Jacksonville Center
07:49PM 33.4261 -79.5206 40° Northeast 477 549 35,000  Level Jacksonville Center
07:51PM 33.6167 -79.3367 39° Northeast 485 558 35,000  Level Washington Center
07:52PM 33.7181 -79.2339 40° Northeast 485 558 35,000  Level Washington Center
07:53PM 33.8253 -79.1289 39° Northeast 485 558 35,000  Level Washington Center
07:54PM 33.9283 -79.0281 39° Northeast 485 558 35,000  Level Washington Center
07:55PM 34.0336 -78.9222 40° Northeast 491 565 35,000  Level Washington Center
07:56PM 34.1472 -78.8114 39° Northeast 486 559 35,000  Level Washington Center
07:57PM 34.2544 -78.7050 39° Northeast 486 559 35,000  Level Washington Center
07:59PM 34.4642 -78.4939 40° Northeast 491 565 35,000  Level Washington Center
08:00PM 34.5731 -78.3867 39° Northeast 491 565 35,000  Level Washington Center
08:01PM 34.6758 -78.2767 41° Northeast 491 565 35,000  Level Washington Center
08:02PM 34.7825 -78.1689 40° Northeast 491 565 35,000  Level Washington Center
08:03PM 34.8764 -78.0681 41° Northeast 491 565 35,000  Level Washington Center
08:04PM 34.9831 -77.9597 40° Northeast 491 565 35,000 -240 Level Washington Center
08:05PM 35.0872 -77.8511 40° Northeast 491 565 34,600 -720 Descending Washington Center
08:06PM 35.2100 -77.7581 32° Northeast 497 572 33,600 -840 Descending Washington Center
08:07PM 35.3286 -77.6669 32° Northeast 502 578 33,000 -300 Descending Washington Center
08:08PM 35.4447 -77.5756 33° Northeast 502 578 33,000  Level Washington Center
08:09PM 35.5631 -77.4867 31° Northeast 497 572 33,000  Level Washington Center
08:10PM 35.6792 -77.3972 32° Northeast 497 572 33,000  Level Washington Center
08:11PM 35.7953 -77.3078 32° Northeast 497 572 33,000  Level Washington Center
08:12PM 35.9114 -77.2128 34° Northeast 497 572 33,000 -300 Level Washington Center
08:13PM 36.0358 -77.1125 33° Northeast 497 572 32,500 -720 Descending Washington Center
08:14PM 36.1539 -77.0222 32° Northeast 492 566 31,600 -960 Descending Washington Center
08:15PM 36.2697 -76.9292 33° Northeast 492 566 30,600 -1,020 Descending Washington Center
08:16PM 36.3853 -76.8381 32° Northeast 487 560 29,600 -840 Descending Washington Center
08:17PM 36.4947 -76.7494 33° Northeast 487 560 29,000 -300 Descending Washington Center
08:18PM 36.6039 -76.6631 32° Northeast 480 552 29,000  Level Washington Center
08:19PM 36.6922 -76.5917 33° Northeast 474 545 29,000  Level Washington Center
08:20PM 36.8139 -76.4922 33° Northeast 474 545 29,000  Level Washington Center
08:21PM 36.9253 -76.4000 33° Northeast 474 545 29,000  Level Washington Center
08:22PM 37.0364 -76.3100 33° Northeast 474 545 29,000  Level Washington Center
08:23PM 37.1453 -76.2197 33° Northeast 474 545 29,000  Level Washington Center
08:24PM 37.2753 -76.1269 30° Northeast 474 545 29,000  Level Washington Center
08:25PM 37.3903 -76.0414 31° Northeast 479 551 29,000  Level Washington Center
08:26PM 37.4928 -75.9636 31° Northeast 479 551 29,000  Level Washington Center
08:27PM 37.6117 -75.8775 30° Northeast 474 545 29,000  Level Washington Center
08:28PM 37.7267 -75.7914 31° Northeast 479 551 29,000  Level Washington Center
08:29PM 37.8436 -75.7047 30° Northeast 479 551 29,000  Level Washington Center
08:30PM 37.9625 -75.6156 31° Northeast 479 551 29,000  Level Washington Center
08:31PM 38.0897 -75.5125 33° Northeast 484 557 29,000 -300 Level Washington Center
08:32PM 38.1981 -75.4386 28° Northeast 489 563 28,400 -1,980 Descending Washington Center
08:33PM 38.3147 -75.3508 31° Northeast 489 563 25,100 -3,240 Descending Washington Center
08:34PM 38.4333 -75.2550 32° Northeast 494 568 22,000 -3,540 Descending Washington Center
08:35PM 38.5436 -75.1697 31° Northeast 483 556 18,100 -3,300 Descending Washington Center
08:36PM 38.6453 -75.0947 30° Northeast 450 518 15,500 -1,620 Descending Washington Center
08:37PM 38.7431 -75.0275 28° Northeast 418 481 14,900 -300 Descending Washington Center
08:38PM 38.8389 -75.0081 North 368 423 14,900  Level Washington Center
08:39PM 38.9325 -75.0019 North 354 407 14,900  Level Washington Center
08:40PM 39.0306 -75.0036 359° North 349 402 14,900 -600 Level Washington Center
08:41PM 39.1222 -74.9950 North 344 396 13,700 -1,860 Descending Washington Center
08:42PM 39.2886 -74.9822 North 339 390 10,000 -1,920 Descending FAA TRACON SMA TRACON (SMA)
08:43PM 39.3167 -74.9808 North 329 379 9,900 -1,080 Descending FAA TRACON SMA TRACON (SMA)
08:43PM 39.3469 -74.9789 North 290 334 9,300 -1,380 Descending FAA TRACON SMA TRACON (SMA)
08:43PM 39.3717 -74.9775 North 289 333 9,000 -480 Descending FAA TRACON SMA TRACON (SMA)
08:44PM 39.4017 -74.9761 North 283 326 9,000  Level FAA TRACON SMA TRACON (SMA)
08:44PM 39.4250 -74.9736 North 282 325 9,000 -300 Level FAA TRACON SMA TRACON (SMA)
08:45PM 39.4494 -74.9753 357° North 276 318 8,800 -1,260 Descending FAA TRACON SMA TRACON (SMA)
08:45PM 39.4717 -74.9992 320° Northwest 286 329 8,100 -1,680 Descending FAA TRACON SMA TRACON (SMA)
08:45PM 39.4864 -75.0211 311° West 265 305 7,800 -1,140 Descending FAA TRACON SMA TRACON (SMA)
08:45PM 39.5011 -75.0447 309° West 268 308 7,400 -1,200 Descending FAA TRACON SMA TRACON (SMA)
08:46PM 39.5156 -75.0669 310° West 264 304 7,000 -1,380 Descending FAA TRACON SMA TRACON (SMA)
08:46PM 39.5325 -75.0933 310° West 260 299 6,500 -1,380 Descending FAA TRACON SMA TRACON (SMA)
08:46PM 39.5472 -75.1164 310° West 258 297 6,100 -780 Descending FAA TRACON SMA TRACON (SMA)
08:47PM 39.5608 -75.1389 308° West 258 297 6,000 -180 Descending FAA TRACON SMA TRACON (SMA)
08:47PM 39.5778 -75.1678 307° West 261 300 6,000  Level FAA TRACON SMA TRACON (SMA)
08:47PM 39.5914 -75.1897 309° West 261 300 6,000 -300 Level FAA TRACON SMA TRACON (SMA)
08:48PM 39.6056 -75.2139 307° West 263 303 5,800 -1,740 Descending FAA TRACON SMA TRACON (SMA)
08:48PM 39.6231 -75.2428 308° West 266 306 4,900 -1,980 Descending FAA TRACON SMA TRACON (SMA)
08:48PM 39.6381 -75.2692 306° West 284 327 4,500 -1,080 Descending FAA TRACON SMA TRACON (SMA)
08:49PM 39.6517 -75.2942 305° West 279 321 4,200 -1,200 Descending FAA TRACON SMA TRACON (SMA)
08:49PM 39.6686 -75.3256 305° West 275 316 3,700 -1,380 Descending FAA TRACON SMA TRACON (SMA)
08:49PM 39.6819 -75.3500 305° West 272 313 3,300 -1,080 Descending FAA TRACON SMA TRACON (SMA)
08:50PM 39.6956 -75.3744 306° West 268 308 3,000 -480 Descending FAA TRACON SMA TRACON (SMA)
08:50PM 39.7133 -75.4022 310° West 269 310 3,000  Level FAA TRACON SMA TRACON (SMA)
08:50PM 39.7297 -75.4233 315° West 262 302 3,000 -180 Level FAA TRACON SMA TRACON (SMA)
08:51PM 39.7453 -75.4422 317° Northwest 249 287 2,900 -600 Descending FAA TRACON SMA TRACON (SMA)
08:51PM 39.7694 -75.4492 348° North 231 266 2,600 -900 Descending FAA TRACON SMA TRACON (SMA)
08:51PM 39.7886 -75.4428 14° North 226 260 2,300 -780 Descending FAA TRACON SMA TRACON (SMA)
08:52PM 39.8047 -75.4314 29° Northeast 213 245 2,100 -480 Descending FAA TRACON SMA TRACON (SMA)
08:52PM 39.8219 -75.4147 37° Northeast 203 234 2,000 -180 Descending FAA TRACON SMA TRACON (SMA)
08:52PM 39.8347 -75.4006 40° Northeast 184 212 2,000 -480 Level FAA TRACON SMA TRACON (SMA)
08:53PM 39.8389 -75.3839 72° East 159 183 1,700 -600 Descending FAA TRACON SMA TRACON (SMA)
08:53PM 39.8425 -75.3697 72° East 138 159 1,600 -780 Descending FAA TRACON SMA TRACON (SMA)
08:53PM 39.8450 -75.3522 79° East 128 147 1,200 -900 Descending FAA TRACON SMA TRACON (SMA)
08:54PM 39.8478 -75.3392 75° East 123 142 1,000 -480 Descending FAA TRACON SMA TRACON (SMA)
08:54PM 39.8503 -75.3269 75° East 117 135 900 -480 Descending FAA TRACON SMA TRACON (SMA)
08:54PM 39.8533 -75.3117 75° East 114 131 700 -660 Descending FAA TRACON SMA TRACON (SMA)